createdAt,value
2019-03-27T00:02:20.400Z,36.73
2019-03-27T00:04:48.795Z,38.13
2019-03-27T00:07:17.184Z,34.87
2019-03-27T00:09:45.566Z,37.43
2019-03-27T00:12:13.959Z,36.17
2019-03-27T00:14:42.361Z,35.70
2019-03-27T00:17:10.758Z,40.67
2019-03-27T00:19:39.150Z,47.33
2019-03-27T00:22:07.579Z,42.20
2019-03-27T00:24:35.984Z,39.87
2019-03-27T00:27:04.439Z,44.30
2019-03-27T00:29:32.840Z,41.70
2019-03-27T00:32:01.231Z,45.67
2019-03-27T00:34:29.626Z,43.00
2019-03-27T00:36:58.035Z,40.37
2019-03-27T00:39:26.425Z,45.87
2019-03-27T00:41:54.826Z,44.03
2019-03-27T00:44:23.238Z,42.93
2019-03-27T00:46:51.631Z,47.13
2019-03-27T00:49:20.028Z,41.27
2019-03-27T00:51:48.433Z,47.90
2019-03-27T00:54:16.833Z,44.70
2019-03-27T00:56:45.227Z,45.30
2019-03-27T00:59:13.729Z,47.83
2019-03-27T01:01:42.136Z,45.13
2019-03-27T01:04:10.528Z,50.80
2019-03-27T01:06:38.916Z,47.17
2019-03-27T01:09:07.304Z,47.07
2019-03-27T01:11:35.682Z,43.93
2019-03-27T01:14:04.152Z,48.47
2019-03-27T01:16:32.549Z,52.77
2019-03-27T01:19:00.931Z,51.83
2019-03-27T01:21:29.320Z,48.30
2019-03-27T01:23:57.708Z,52.90
2019-03-27T01:26:26.090Z,53.03
2019-03-27T01:28:54.482Z,48.80
2019-03-27T01:31:22.870Z,50.73
2019-03-27T01:33:51.260Z,52.67
2019-03-27T01:36:19.646Z,50.57
2019-03-27T01:38:48.108Z,47.17
2019-03-27T01:41:16.564Z,50.73
2019-03-27T01:43:44.884Z,50.23
2019-03-27T01:46:13.271Z,52.67
2019-03-27T01:48:41.661Z,56.10
2019-03-27T01:51:10.121Z,51.20
2019-03-27T01:53:38.503Z,50.60
2019-03-27T01:56:06.894Z,53.87
2019-03-27T01:58:35.324Z,48.87
2019-03-27T02:01:04.015Z,54.30
2019-03-27T02:03:32.368Z,54.33
2019-03-27T02:06:00.750Z,52.47
2019-03-27T02:08:29.142Z,54.10
2019-03-27T02:10:57.525Z,51.03
2019-03-27T02:13:25.914Z,53.57
2019-03-27T02:16:06.120Z,51.67
2019-03-27T02:18:24.424Z,54.43
2019-03-27T02:20:52.883Z,52.07
2019-03-27T02:23:21.269Z,52.90
2019-03-27T02:25:49.658Z,53.07
2019-03-27T02:28:18.042Z,52.33
2019-03-27T02:30:46.513Z,55.27
2019-03-27T02:33:14.894Z,53.90
2019-03-27T02:35:43.371Z,60.07
2019-03-27T02:38:11.749Z,56.40
2019-03-27T02:40:40.154Z,51.60
2019-03-27T02:43:08.564Z,59.50
2019-03-27T02:45:36.998Z,56.30
2019-03-27T02:48:05.390Z,55.30
2019-03-27T02:50:33.918Z,58.70
2019-03-27T02:53:02.280Z,66.43
2019-03-27T02:55:30.684Z,51.03
2019-03-27T02:57:59.087Z,56.97
2019-03-27T03:00:27.492Z,53.70
2019-03-27T03:02:55.865Z,58.93
2019-03-27T03:05:24.278Z,52.63
2019-03-27T03:07:52.697Z,57.10
2019-03-27T03:10:21.237Z,60.93
2019-03-27T03:12:49.629Z,54.77
2019-03-27T03:15:22.215Z,57.87
2019-03-27T03:17:50.828Z,56.83
2019-03-27T03:20:19.193Z,55.00
2019-03-27T03:22:47.576Z,54.87
2019-03-27T03:25:16.099Z,53.87
2019-03-27T03:27:44.486Z,57.73
2019-03-27T03:30:12.951Z,53.70
2019-03-27T03:32:41.383Z,56.43
2019-03-27T03:35:10.710Z,60.27
2019-03-27T03:37:39.075Z,57.07
2019-03-27T03:40:08.921Z,57.07
2019-03-27T03:42:37.520Z,56.73
2019-03-27T03:45:07.550Z,55.17
2019-03-27T03:47:35.996Z,56.83
2019-03-27T03:50:05.923Z,57.87
2019-03-27T03:52:34.410Z,55.17
2019-03-27T03:55:02.836Z,56.00
2019-03-27T03:57:31.648Z,53.50
2019-03-27T04:00:03.244Z,53.83
2019-03-27T04:02:34.124Z,59.50
2019-03-27T04:05:04.290Z,60.53
2019-03-27T04:07:32.691Z,60.97
2019-03-27T04:10:01.152Z,60.27
2019-03-27T04:12:29.527Z,55.17
2019-03-27T04:14:57.906Z,59.97
2019-03-27T04:17:26.329Z,58.10
2019-03-27T04:19:54.745Z,54.87
2019-03-27T04:22:23.171Z,58.80
2019-03-27T04:24:51.549Z,55.00
2019-03-27T04:27:19.974Z,53.73
2019-03-27T04:29:48.391Z,48.83
2019-03-27T04:32:16.790Z,57.97
2019-03-27T04:34:47.071Z,53.00
2019-03-27T04:37:15.343Z,54.50
2019-03-27T04:39:44.656Z,56.33
2019-03-27T04:42:13.056Z,56.87
2019-03-27T04:44:41.508Z,56.50
2019-03-27T04:47:09.930Z,50.73
2019-03-27T04:49:39.330Z,56.07
2019-03-27T04:52:07.724Z,55.80
2019-03-27T04:54:36.135Z,58.07
2019-03-27T04:57:04.555Z,55.73
2019-03-27T04:59:32.908Z,54.43
2019-03-27T05:02:01.330Z,60.80
2019-03-27T05:04:29.986Z,58.27
2019-03-27T05:06:58.401Z,59.03
2019-03-27T05:09:26.770Z,59.93
2019-03-27T05:11:55.190Z,57.53
2019-03-27T05:14:23.602Z,59.23
2019-03-27T05:16:51.989Z,59.53
2019-03-27T05:19:20.412Z,57.57
2019-03-27T05:21:48.882Z,57.47
2019-03-27T05:24:17.273Z,53.63
2019-03-27T05:26:45.657Z,54.83
2019-03-27T05:29:14.043Z,65.33
2019-03-27T05:31:42.431Z,51.37
2019-03-27T05:34:10.895Z,55.23
2019-03-27T05:36:39.323Z,54.53
2019-03-27T05:39:07.708Z,52.17
2019-03-27T05:41:36.108Z,55.10
2019-03-27T05:44:04.501Z,53.17
2019-03-27T05:46:32.913Z,48.40
2019-03-27T05:49:01.306Z,52.83
2019-03-27T05:51:29.774Z,55.33
2019-03-27T05:53:58.173Z,54.97
2019-03-27T05:56:26.654Z,53.33
2019-03-27T05:58:54.994Z,52.63
2019-03-27T06:01:23.385Z,52.77
2019-03-27T06:03:51.880Z,52.10
2019-03-27T06:06:20.305Z,56.17
2019-03-27T06:08:48.725Z,52.17
2019-03-27T06:11:17.109Z,50.00
2019-03-27T06:13:45.997Z,43.73
2019-03-27T06:16:14.444Z,51.70
2019-03-27T06:18:42.795Z,46.37
2019-03-27T06:21:11.222Z,42.23
2019-03-27T06:23:39.571Z,49.85
2019-03-27T06:26:07.961Z,40.07
2019-03-27T06:28:36.346Z,40.37
2019-03-27T06:31:04.772Z,35.83
2019-03-27T06:33:33.231Z,39.53
2019-03-27T06:36:01.617Z,38.13
2019-03-27T06:38:30.044Z,41.87
2019-03-27T06:40:58.441Z,37.20
2019-03-27T06:43:26.826Z,39.33
2019-03-27T06:45:58.278Z,39.93
2019-03-27T06:48:26.711Z,38.67
2019-03-27T06:50:59.189Z,37.87
2019-03-27T06:53:27.616Z,37.57
2019-03-27T06:55:57.023Z,40.30
2019-03-27T06:58:25.406Z,36.40
2019-03-27T07:00:53.853Z,36.60
2019-03-27T07:03:22.346Z,32.60
2019-03-27T07:05:50.680Z,32.23
2019-03-27T07:08:19.075Z,33.67
2019-03-27T07:10:47.463Z,30.90
2019-03-27T07:13:15.855Z,31.53
2019-03-27T07:15:45.221Z,34.93
2019-03-27T07:18:13.608Z,35.17
2019-03-27T07:20:41.997Z,35.93
2019-03-27T07:23:10.502Z,34.47
2019-03-27T07:25:38.891Z,31.50
2019-03-27T07:28:07.286Z,32.00
2019-03-27T07:30:35.677Z,33.57
2019-03-27T07:33:04.126Z,34.13
2019-03-27T07:35:32.514Z,32.90
2019-03-27T07:38:02.890Z,33.30
2019-03-27T07:40:31.312Z,31.93
2019-03-27T07:42:59.731Z,33.80
2019-03-27T07:45:28.151Z,32.77
2019-03-27T07:47:57.523Z,31.17
2019-03-27T07:50:25.914Z,31.07
2019-03-27T07:52:54.308Z,30.73
2019-03-27T07:55:22.730Z,31.30
2019-03-27T07:57:51.111Z,32.73
2019-03-27T08:00:24.051Z,26.03
2019-03-27T08:02:52.479Z,27.00
2019-03-27T08:05:20.860Z,23.47
2019-03-27T08:07:49.243Z,20.00
2019-03-27T08:10:17.627Z,23.40
2019-03-27T08:12:46.016Z,20.43
2019-03-27T08:15:14.740Z,24.70
2019-03-27T08:17:43.135Z,18.97
2019-03-27T08:20:13.612Z,20.27
2019-03-27T08:22:41.997Z,21.07
2019-03-27T08:25:10.833Z,22.03
2019-03-27T08:27:39.289Z,20.37
2019-03-27T08:30:10.796Z,18.43
2019-03-27T08:32:39.219Z,18.63
2019-03-27T08:35:08.041Z,14.63
2019-03-27T08:37:36.536Z,16.93
2019-03-27T08:40:07.583Z,15.60
2019-03-27T08:42:36.810Z,17.13
2019-03-27T08:45:09.577Z,17.60
2019-03-27T08:47:39.066Z,18.53
2019-03-27T08:50:08.719Z,20.93
2019-03-27T08:52:37.169Z,17.37
2019-03-27T08:55:07.328Z,18.20
2019-03-27T08:57:35.711Z,16.07
2019-03-27T09:00:06.782Z,21.03
2019-03-27T09:02:35.194Z,17.37
2019-03-27T09:05:04.930Z,15.27
2019-03-27T09:07:33.329Z,15.27
2019-03-27T09:10:01.755Z,14.70
2019-03-27T09:12:30.209Z,16.87
2019-03-27T09:14:58.588Z,15.10
2019-03-27T09:17:27.014Z,15.13
2019-03-27T09:19:55.389Z,17.43
2019-03-27T09:22:23.771Z,12.73
2019-03-27T09:24:52.162Z,14.10
2019-03-27T09:27:20.674Z,14.17
2019-03-27T09:29:49.076Z,11.93
2019-03-27T09:32:17.496Z,13.37
2019-03-27T09:34:45.935Z,12.80
2019-03-27T09:37:14.311Z,11.90
2019-03-27T09:39:42.807Z,14.00
2019-03-27T09:42:11.192Z,15.43
2019-03-27T09:44:39.582Z,12.90
2019-03-27T09:47:08.035Z,10.97
2019-03-27T09:49:48.982Z,10.83
2019-03-27T09:52:06.538Z,12.03
2019-03-27T09:54:34.953Z,11.73
2019-03-27T09:57:03.444Z,10.97
2019-03-27T09:59:31.840Z,12.10
2019-03-27T10:02:00.255Z,11.07
2019-03-27T10:04:29.644Z,14.70
2019-03-27T10:06:58.020Z,12.15
2019-03-27T10:09:26.412Z,12.73
2019-03-27T10:11:54.820Z,12.77
2019-03-27T10:14:23.261Z,11.17
2019-03-27T10:16:51.653Z,11.20
2019-03-27T10:19:20.043Z,13.00
2019-03-27T10:21:49.482Z,13.90
2019-03-27T10:24:17.911Z,12.30
2019-03-27T10:26:46.369Z,11.47
2019-03-27T10:29:14.768Z,12.03
2019-03-27T10:31:43.199Z,10.10
2019-03-27T10:34:11.643Z,10.20
2019-03-27T10:36:40.052Z,10.87
2019-03-27T10:39:08.471Z,9.07
2019-03-27T10:41:36.893Z,11.70
2019-03-27T10:44:05.477Z,9.50
2019-03-27T10:46:33.860Z,11.67
2019-03-27T10:49:03.267Z,8.50
2019-03-27T10:51:31.665Z,17.23
2019-03-27T10:54:00.128Z,7.80
2019-03-27T10:56:28.547Z,8.57
2019-03-27T10:58:56.929Z,13.10
2019-03-27T11:01:25.392Z,10.03
2019-03-27T11:03:53.790Z,7.67
2019-03-27T11:06:22.174Z,7.53
2019-03-27T11:08:50.584Z,6.47
2019-03-27T11:11:19.035Z,5.90
2019-03-27T11:13:47.472Z,6.33
2019-03-27T11:16:15.929Z,8.53
2019-03-27T11:18:44.384Z,6.60
2019-03-27T11:21:12.815Z,6.00
2019-03-27T11:23:41.262Z,6.90
2019-03-27T11:26:09.680Z,7.30
2019-03-27T11:28:38.091Z,6.57
2019-03-27T11:31:06.503Z,7.53
2019-03-27T11:33:34.936Z,6.47
2019-03-27T11:36:03.362Z,5.87
2019-03-27T11:38:31.792Z,6.53
2019-03-27T11:41:01.882Z,6.57
2019-03-27T11:43:30.279Z,6.10
2019-03-27T11:45:58.755Z,6.10
2019-03-27T11:48:27.140Z,6.17
2019-03-27T11:50:55.522Z,6.97
2019-03-27T11:53:23.909Z,9.13
2019-03-27T11:55:52.309Z,8.27
2019-03-27T11:58:20.681Z,8.03
2019-03-27T12:00:54.714Z,10.60
2019-03-27T12:03:19.246Z,9.40
2019-03-27T12:05:47.634Z,10.77
2019-03-27T12:08:16.019Z,10.37
2019-03-27T12:10:44.401Z,5.73
2019-03-27T12:13:12.774Z,6.93
2019-03-27T12:15:41.706Z,7.20
2019-03-27T12:18:11.136Z,4.60
2019-03-27T12:20:39.604Z,4.57
2019-03-27T12:23:08.227Z,7.43
2019-03-27T12:25:36.618Z,7.10
2019-03-27T12:28:05.198Z,5.67
2019-03-27T12:30:33.577Z,5.40
2019-03-27T12:33:01.961Z,6.30
2019-03-27T12:35:30.412Z,4.87
2019-03-27T12:37:58.896Z,4.80
2019-03-27T12:40:28.141Z,4.47
2019-03-27T12:42:56.577Z,5.00
2019-03-27T12:45:24.934Z,5.67
2019-03-27T12:47:53.344Z,6.93
2019-03-27T12:50:21.762Z,4.97
2019-03-27T12:52:50.455Z,5.67
2019-03-27T12:55:18.845Z,4.87
2019-03-27T12:57:47.224Z,4.60
2019-03-27T13:00:16.082Z,6.33
2019-03-27T13:02:44.471Z,7.63
2019-03-27T13:05:12.893Z,5.87
2019-03-27T13:07:49.875Z,6.33
2019-03-27T13:10:11.564Z,7.57
2019-03-27T13:12:39.949Z,7.43
2019-03-27T13:15:08.476Z,6.13
2019-03-27T13:17:36.866Z,7.50
2019-03-27T13:20:08.945Z,6.00
2019-03-27T13:22:38.485Z,5.73
2019-03-27T13:25:07.951Z,4.47
2019-03-27T13:27:36.378Z,6.30
2019-03-27T13:30:07.833Z,5.40
2019-03-27T13:32:36.294Z,5.50
2019-03-27T13:35:06.979Z,5.10
2019-03-27T13:37:35.607Z,6.00
2019-03-27T13:40:09.947Z,6.33
2019-03-27T13:42:38.376Z,5.93
2019-03-27T13:45:08.057Z,6.67
2019-03-27T13:47:36.439Z,5.10
2019-03-27T13:50:12.958Z,5.73
2019-03-27T13:52:41.344Z,6.30
2019-03-27T13:55:09.956Z,6.10
2019-03-27T13:57:38.451Z,6.63
2019-03-27T14:00:10.386Z,6.90
2019-03-27T14:02:38.873Z,6.10
2019-03-27T14:05:07.911Z,6.03
2019-03-27T14:07:36.710Z,7.57
2019-03-27T14:10:06.891Z,6.47
2019-03-27T14:12:35.586Z,5.20
2019-03-27T14:15:08.403Z,5.67
2019-03-27T14:17:37.001Z,6.23
2019-03-27T14:20:10.599Z,6.60
2019-03-27T14:22:39.044Z,5.77
2019-03-27T14:25:09.255Z,7.03
2019-03-27T14:27:37.670Z,5.63
2019-03-27T14:30:11.481Z,8.13
2019-03-27T14:32:40.944Z,5.37
2019-03-27T14:35:09.775Z,6.83
2019-03-27T14:37:38.540Z,6.70
2019-03-27T14:40:08.279Z,5.00
2019-03-27T14:42:38.824Z,8.03
2019-03-27T14:45:09.972Z,8.70
2019-03-27T14:47:41.814Z,6.00
2019-03-27T14:50:13.919Z,6.13
2019-03-27T14:52:42.284Z,7.60
2019-03-27T14:55:12.970Z,7.90
2019-03-27T14:57:41.368Z,9.40
2019-03-27T15:00:11.248Z,8.10
2019-03-27T15:02:39.800Z,6.93
2019-03-27T15:05:10.141Z,7.80
2019-03-27T15:07:38.535Z,5.53
2019-03-27T15:10:10.356Z,7.10
2019-03-27T15:12:39.229Z,5.87
2019-03-27T15:15:11.272Z,9.30
2019-03-27T15:17:40.344Z,7.47
2019-03-27T15:20:09.267Z,7.33
2019-03-27T15:22:37.823Z,6.60
2019-03-27T15:25:06.839Z,7.43
2019-03-27T15:27:35.466Z,6.43
2019-03-27T15:30:06.911Z,7.57
2019-03-27T15:32:35.487Z,6.97
2019-03-27T15:35:04.476Z,7.13
2019-03-27T15:37:33.007Z,7.70
2019-03-27T15:40:01.392Z,5.43
2019-03-27T15:42:30.774Z,6.83
2019-03-27T15:44:59.266Z,8.67
2019-03-27T15:47:27.755Z,7.03
2019-03-27T15:49:56.147Z,7.10
2019-03-27T15:52:35.713Z,8.47
2019-03-27T15:54:54.722Z,7.37
2019-03-27T15:57:23.144Z,7.47
2019-03-27T15:59:51.739Z,8.83
2019-03-27T16:02:20.169Z,8.83
2019-03-27T16:04:48.671Z,7.33
2019-03-27T16:07:17.092Z,8.03
2019-03-27T16:09:45.535Z,8.17
2019-03-27T16:12:13.909Z,10.80
2019-03-27T16:14:42.357Z,8.73
2019-03-27T16:17:13.761Z,8.50
2019-03-27T16:19:41.019Z,10.20
2019-03-27T16:22:09.399Z,10.57
2019-03-27T16:24:37.903Z,11.33
2019-03-27T16:27:06.403Z,8.23
2019-03-27T16:29:34.770Z,9.80
2019-03-27T16:32:03.265Z,6.23
2019-03-27T16:34:31.703Z,8.53
2019-03-27T16:37:00.154Z,8.23
2019-03-27T16:39:28.544Z,8.30
2019-03-27T16:41:57.022Z,8.60
2019-03-27T16:44:25.373Z,8.57
2019-03-27T16:46:53.750Z,7.30
2019-03-27T16:49:22.220Z,7.90
2019-03-27T16:51:50.597Z,7.40
2019-03-27T16:54:19.094Z,8.85
2019-03-27T16:56:47.475Z,8.90
2019-03-27T16:59:15.862Z,7.73
2019-03-27T17:01:44.322Z,8.13
2019-03-27T17:04:12.697Z,9.30
2019-03-27T17:06:41.078Z,8.97
2019-03-27T17:09:09.607Z,7.33
2019-03-27T17:11:38.042Z,10.07
2019-03-27T17:14:06.413Z,9.87
2019-03-27T17:16:34.850Z,9.27
2019-03-27T17:19:03.223Z,6.27
2019-03-27T17:21:31.680Z,10.47
2019-03-27T17:24:00.125Z,9.60
2019-03-27T17:26:28.523Z,9.30
2019-03-27T17:28:56.885Z,8.50
2019-03-27T17:31:25.297Z,9.20
2019-03-27T17:33:53.737Z,7.07
2019-03-27T17:36:22.130Z,8.90
2019-03-27T17:38:50.564Z,6.50
2019-03-27T17:41:18.976Z,9.90
2019-03-27T17:43:47.426Z,6.40
2019-03-27T17:46:15.855Z,7.33
2019-03-27T17:48:44.235Z,10.27
2019-03-27T17:51:12.634Z,7.00
2019-03-27T17:53:41.046Z,8.50
2019-03-27T17:56:09.533Z,10.73
2019-03-27T17:58:37.922Z,8.40
2019-03-27T18:01:06.311Z,10.07
2019-03-27T18:03:34.711Z,10.78
2019-03-27T18:06:03.242Z,6.93
2019-03-27T18:08:31.641Z,9.53
2019-03-27T18:11:00.067Z,10.67
2019-03-27T18:13:28.473Z,7.63
2019-03-27T18:15:56.934Z,9.17
2019-03-27T18:18:25.311Z,7.73
2019-03-27T18:20:53.693Z,8.23
2019-03-27T18:23:22.080Z,10.47
2019-03-27T18:25:50.514Z,10.20
2019-03-27T18:28:18.894Z,9.27
2019-03-27T18:30:47.276Z,9.57
2019-03-27T18:33:15.717Z,10.00
2019-03-27T18:35:44.123Z,8.60
2019-03-27T18:38:12.500Z,10.07
2019-03-27T18:40:40.931Z,7.90
2019-03-27T18:43:09.434Z,10.13
2019-03-27T18:45:37.819Z,7.33
2019-03-27T18:48:06.264Z,8.17
2019-03-27T18:50:34.644Z,9.97
2019-03-27T18:53:03.044Z,12.10
2019-03-27T18:55:31.491Z,9.37
2019-03-27T18:58:00.859Z,10.93
2019-03-27T19:00:29.384Z,9.73
2019-03-27T19:02:57.778Z,9.07
2019-03-27T19:05:26.153Z,8.90
2019-03-27T19:07:54.689Z,8.10
2019-03-27T19:10:23.069Z,9.53
2019-03-27T19:12:51.453Z,7.53
2019-03-27T19:15:19.877Z,8.87
2019-03-27T19:17:48.346Z,9.80
2019-03-27T19:20:16.796Z,10.97
2019-03-27T19:22:45.217Z,8.33
2019-03-27T19:25:13.775Z,8.80
2019-03-27T19:27:42.225Z,10.10
2019-03-27T19:30:11.178Z,8.87
2019-03-27T19:32:39.600Z,9.97
2019-03-27T19:35:08.346Z,7.80
2019-03-27T19:37:36.780Z,9.77
2019-03-27T19:40:06.047Z,8.93
2019-03-27T19:42:34.688Z,11.63
2019-03-27T19:45:03.518Z,9.33
2019-03-27T19:47:31.901Z,9.63
2019-03-27T19:50:00.458Z,12.30
2019-03-27T19:52:28.804Z,10.13
2019-03-27T19:54:57.179Z,8.33
2019-03-27T19:57:25.572Z,9.07
2019-03-27T19:59:53.955Z,8.60
2019-03-27T20:02:22.382Z,16.07
2019-03-27T20:04:50.802Z,13.70
2019-03-27T20:07:19.184Z,14.37
2019-03-27T20:09:47.566Z,16.73
2019-03-27T20:12:15.959Z,35.03
2019-03-27T20:14:44.358Z,32.63
2019-03-27T20:17:12.768Z,21.30
2019-03-27T20:19:41.162Z,20.40
2019-03-27T20:22:09.593Z,15.30
2019-03-27T20:24:41.271Z,17.63
2019-03-27T20:27:08.143Z,16.70
2019-03-27T20:29:36.556Z,11.73
2019-03-27T20:32:05.045Z,12.33
2019-03-27T20:34:33.431Z,14.40
2019-03-27T20:37:01.819Z,13.20
2019-03-27T20:39:30.288Z,11.40
2019-03-27T20:41:58.673Z,11.93
2019-03-27T20:44:27.061Z,9.30
2019-03-27T20:46:55.486Z,13.57
2019-03-27T20:49:23.944Z,11.90
2019-03-27T20:51:54.787Z,15.43
2019-03-27T20:54:22.398Z,12.07
2019-03-27T20:56:50.777Z,10.93
2019-03-27T20:59:19.164Z,15.23
2019-03-27T21:01:47.592Z,12.80
2019-03-27T21:04:16.045Z,13.40
2019-03-27T21:06:44.436Z,12.30
2019-03-27T21:09:12.868Z,12.60
2019-03-27T21:11:41.251Z,15.40
2019-03-27T21:14:09.678Z,16.93
2019-03-27T21:16:38.368Z,14.30
2019-03-27T21:19:06.751Z,14.23
2019-03-27T21:21:35.143Z,13.27
2019-03-27T21:24:03.534Z,15.37
2019-03-27T21:26:31.969Z,12.40
2019-03-27T21:29:00.356Z,13.80
2019-03-27T21:31:28.772Z,12.23
2019-03-27T21:33:58.022Z,13.37
2019-03-27T21:36:26.450Z,13.13
2019-03-27T21:38:54.876Z,13.50
2019-03-27T21:41:23.291Z,11.80
2019-03-27T21:43:51.689Z,12.17
2019-03-27T21:46:20.132Z,11.90
2019-03-27T21:48:48.555Z,10.23
2019-03-27T21:51:16.955Z,11.73
2019-03-27T21:53:50.393Z,15.73
2019-03-27T21:56:15.459Z,12.80
2019-03-27T21:58:43.837Z,13.00
2019-03-27T22:01:12.253Z,10.70
2019-03-27T22:03:40.662Z,9.73
2019-03-27T22:06:09.113Z,12.20
2019-03-27T22:08:38.399Z,12.23
2019-03-27T22:11:06.826Z,14.23
2019-03-27T22:13:35.259Z,13.90
2019-03-27T22:16:03.659Z,13.97
2019-03-27T22:18:32.156Z,11.23
2019-03-27T22:21:00.571Z,15.87
2019-03-27T22:23:29.000Z,12.70
2019-03-27T22:25:57.420Z,11.13
2019-03-27T22:28:25.862Z,13.30
2019-03-27T22:30:54.248Z,13.83
2019-03-27T22:33:22.650Z,12.20
2019-03-27T22:35:51.079Z,10.17
2019-03-27T22:38:19.486Z,14.50
2019-03-27T22:40:47.898Z,15.07
2019-03-27T22:43:16.308Z,12.17
2019-03-27T22:45:45.607Z,18.07
2019-03-27T22:48:14.021Z,11.30
2019-03-27T22:50:42.416Z,15.27
2019-03-27T22:53:10.842Z,14.03
2019-03-27T22:55:49.193Z,13.50
2019-03-27T22:58:09.474Z,13.33
2019-03-27T23:00:40.539Z,15.97
2019-03-27T23:03:18.098Z,13.83
2019-03-27T23:05:39.156Z,14.27
2019-03-27T23:08:07.608Z,14.77
2019-03-27T23:10:36.131Z,13.70
2019-03-27T23:13:04.545Z,15.37
2019-03-27T23:15:32.999Z,12.53
2019-03-27T23:18:01.387Z,12.00
2019-03-27T23:20:29.782Z,13.60
2019-03-27T23:22:58.232Z,13.60
2019-03-27T23:25:26.649Z,12.23
2019-03-27T23:27:55.080Z,13.83
2019-03-27T23:30:23.535Z,14.00
2019-03-27T23:32:51.984Z,14.03
2019-03-27T23:35:20.412Z,15.83
2019-03-27T23:37:48.942Z,14.57
2019-03-27T23:40:17.345Z,12.97
2019-03-27T23:42:45.731Z,15.40
2019-03-27T23:45:14.568Z,12.73
2019-03-27T23:47:42.957Z,13.23
2019-03-27T23:50:11.524Z,15.53
2019-03-27T23:52:39.934Z,13.30
2019-03-27T23:55:08.563Z,12.67
2019-03-27T23:57:37.365Z,12.03
